Latest Weather Observations for Cape Naturaliste

IDW60801

Issued at 6:23 am WST Tuesday 17 September 2019 (issued every 10 minutes, with the page automatically refreshed every 10 minutes)

About weather observations | Map of weather stations | Latest weather observations for WA | Other Formats
Station Details ID: 009519 Name: CAPE NATURALISTE Lat: -33.54 Lon: 115.02 Height: 109.0 m
Data from the previous 72 hours. | See also: Recent months at Cape Naturaliste
Date/Time
WST
Temp
°C
App
Temp
°C
Dew
Point
°C
Rel
Hum
%
Delta-T
°C
Wind Press
QNH
hPa
Press
MSL
hPa
Rain since
9am
mm
Dir  Spd
km/h
Gust
km/h
Spd
kts
Gust
kts
17/06:00am 13.9 10.9 10.5 80 1.8 SSE 17 22 9 12 1015.7 1015.7 0.0
17/05:30am 13.8 10.7 10.2 79 1.9 SSE 17 22 9 12 1016.0 1016.0 0.0
17/05:00am 13.6 11.2 10.2 80 1.8 SSE 13 19 7 10 1016.0 1016.0 0.0
17/04:30am 13.8 11.5 10.4 80 1.8 SSW 13 15 7 8 1015.9 1015.9 0.0
17/04:00am 14.3 12.4 10.5 78 2.0 S 11 20 6 11 1015.7 1015.7 0.0
17/03:30am 14.6 12.7 10.6 77 2.1 SSW 11 20 6 11 1015.8 1015.8 0.0
17/03:00am 14.7 11.3 11.1 79 1.9 SSE 20 26 11 14 1015.8 1015.8 0.0
17/02:30am 14.6 11.1 10.8 78 2.0 SSE 20 24 11 13 1015.9 1015.9 0.0
17/02:00am 14.7 11.1 10.7 77 2.1 SE 20 26 11 14 1016.2 1016.2 0.0
17/01:30am 14.6 11.0 10.6 77 2.1 SE 20 26 11 14 1016.5 1016.5 0.0
17/01:00am 14.7 11.3 10.5 76 2.2 SSE 19 24 10 13 1017.0 1017.0 0.0
17/12:30am 14.6 11.7 9.8 73 2.5 S 15 20 8 11 1017.2 1017.2 0.0
17/12:00am 14.8 11.6 10.0 73 2.5 SSE 17 24 9 13 1017.4 1017.4 0.0
 
Date/Time
WST
Temp
°C
App
Temp
°C
Dew
Point
°C
Rel
Hum
%
Delta-T
°C
Wind Press
QNH
hPa
Press
MSL
hPa
Rain since
9am
mm
Dir  Spd
km/h
Gust
km/h
Spd
kts
Gust
kts
16/11:30pm 15.0 11.4 10.0 72 2.6 SSE 19 26 10 14 1017.7 1017.7 0.0
16/11:00pm 14.8 11.8 10.6 76 2.2 SSE 17 20 9 11 1017.9 1017.9 0.0
16/10:30pm 14.3 12.0 10.3 77 2.1 SSW 13 20 7 11 1018.5 1018.5 0.0
16/10:00pm 14.9 12.9 10.1 73 2.5 S 11 19 6 10 1018.7 1018.7 0.0
16/09:30pm 15.0 11.6 10.6 75 2.3 SSE 19 24 10 13 1018.8 1018.8 0.0
16/09:00pm 14.1 11.0 10.3 78 2.0 S 17 22 9 12 1019.0 1018.9 0.0
16/08:30pm 14.2 11.9 10.6 79 1.9 S 13 17 7 9 1019.1 1019.0 0.0
16/08:00pm 14.2 11.7 11.0 81 1.7 SSW 15 19 8 10 1018.8 1018.8 0.0
16/07:30pm 14.9 12.1 11.5 80 1.8 SSW 17 22 9 12 1018.7 1018.7 0.0
16/07:00pm 15.1 12.1 11.9 81 1.7 SSW 19 26 10 14 1018.6 1018.6 0.0
16/06:30pm 15.5 12.4 12.1 80 1.9 SSW 20 26 11 14 1018.7 1018.7 0.0
16/06:00pm 16.1 12.9 11.9 76 2.3 SSW 20 28 11 15 1018.7 1018.7 0.0
16/05:30pm 17.3 14.1 12.0 71 2.9 SSW 20 28 11 15 1018.6 1018.6 0.0
16/05:00pm 18.6 15.8 12.6 68 3.4 SSW 19 26 10 14 1018.6 1018.6 0.0
16/04:30pm 19.5 16.5 11.8 61 4.3 SSW 19 26 10 14 1018.5 1018.5 0.0
16/04:00pm 21.0 20.4 13.4 62 4.4 SSE 9 22 5 12 1018.8 1018.8 0.0
16/03:30pm 19.6 17.9 11.1 58 4.7 ESE 11 15 6 8 1019.2 1019.1 0.0
16/03:00pm 21.1 18.8 11.7 55 5.2 ESE 15 19 8 10 1019.3 1019.2 0.0
16/02:30pm 20.8 18.3 11.2 54 5.3 ESE 15 19 8 10 1019.6 1019.5 0.0
16/02:00pm 20.9 18.3 10.7 52 5.6 E 15 20 8 11 1020.0 1019.9 0.0
16/01:30pm 20.9 17.9 10.7 52 5.6 E 17 24 9 13 1020.2 1020.1 0.0
16/01:00pm 20.5 17.1 11.4 56 5.0 ESE 20 24 11 13 1020.5 1020.4 0.0
16/12:30pm 19.3 15.5 9.8 54 5.1 ESE 20 28 11 15 1020.9 1020.8 0.0
16/12:00pm 19.0 15.0 10.3 57 4.7 ESE 22 28 12 15 1021.1 1021.0 0.0
16/11:30am 18.3 14.3 10.4 60 4.3 E 22 30 12 16 1021.5 1021.4 0.0
16/11:00am 17.8 13.7 10.2 61 4.0 E 22 32 12 17 1021.9 1021.8 0.0
16/10:30am 17.4 12.6 10.3 63 3.8 E 26 33 14 18 1022.3 1022.2 0.0
16/10:00am 17.1 11.8 10.0 63 3.7 ENE 28 39 15 21 1022.6 1022.6 0.0
16/09:30am 15.7 9.4 9.6 67 3.2 ENE 33 41 18 22 1022.9 1022.9 0.0
16/09:00am 14.8 9.0 9.6 71 2.7 ENE 30 37 16 20 1023.0 1023.0 0.0
16/08:30am 14.3 8.6 9.7 74 2.4 ENE 30 41 16 22 1023.1 1023.1 0.0
16/08:00am 13.8 7.6 9.3 74 2.3 E 32 43 17 23 1023.2 1023.2 0.0
16/07:30am 13.9 7.8 9.7 76 2.2 ENE 32 43 17 23 1023.4 1023.4 0.0
16/07:00am 13.1 7.0 9.7 80 1.7 E 32 39 17 21 1023.1 1023.1 0.0
16/06:30am 12.3 6.9 9.5 83 1.4 E 28 35 15 19 1023.2 1023.2 0.0
16/06:00am 12.3 6.1 9.3 82 1.5 E 32 41 17 22 1023.2 1023.2 0.0
16/05:30am 12.4 6.2 9.4 82 1.5 E 32 39 17 21 1023.0 1023.0 0.0
16/05:00am 12.5 6.7 9.5 82 1.5 E 30 39 16 21 1023.0 1023.0 0.0
16/04:30am 12.1 5.8 9.1 82 1.5 E 32 41 17 22 1023.0 1023.0 0.0
16/04:00am 11.8 5.3 8.8 82 1.5 E 33 44 18 24 1022.9 1022.9 0.0
16/03:30am 11.9 5.3 8.7 81 1.6 E 33 44 18 24 1022.9 1022.9 0.0
16/03:00am 12.1 5.2 8.8 80 1.6 E 35 44 19 24 1022.8 1022.8 0.0
16/02:30am 11.1 4.9 8.0 81 1.5 ESE 30 39 16 21 1023.1 1023.1 0.0
16/02:00am 11.3 5.1 7.8 79 1.7 ESE 30 37 16 20 1023.0 1023.0 0.0
16/01:30am 12.2 5.6 8.7 79 1.8 ESE 33 50 18 27 1023.3 1023.3 0.0
16/01:00am 11.6 5.9 8.5 81 1.5 ESE 28 41 15 22 1023.5 1023.5 0.0
16/12:30am 11.3 5.6 8.2 81 1.5 ESE 28 37 15 20 1023.8 1023.8 0.0
16/12:00am 11.4 4.8 7.9 79 1.7 ESE 32 43 17 23 1024.0 1024.0 0.0
 
Date/Time
WST
Temp
°C
App
Temp
°C
Dew
Point
°C
Rel
Hum
%
Delta-T
°C
Wind Press
QNH
hPa
Press
MSL
hPa
Rain since
9am
mm
Dir  Spd
km/h
Gust
km/h
Spd
kts
Gust
kts
15/11:30pm 11.6 4.5 7.9 78 1.8 SE 35 43 19 23 1024.2 1024.2 0.0
15/11:00pm 11.9 4.8 8.2 78 1.8 SE 35 46 19 25 1024.4 1024.4 0.0
15/10:30pm 12.1 5.5 8.4 78 1.8 SE 33 44 18 24 1024.4 1024.4 0.0
15/10:00pm 12.3 5.8 8.2 76 2.0 SE 32 44 17 24 1024.4 1024.4 0.0
15/09:30pm 12.5 6.4 8.2 75 2.1 SSE 30 44 16 24 1024.5 1024.5 0.0
15/09:00pm 12.7 6.5 8.0 73 2.3 SSE 30 43 16 23 1024.3 1024.3 0.0
15/08:30pm 12.8 7.0 7.9 72 2.4 SSE 28 37 15 20 1024.5 1024.5 0.0
15/08:00pm 12.8 7.3 7.7 71 2.5 SSE 26 37 14 20 1024.4 1024.4 0.0
15/07:30pm 13.1 7.3 8.0 71 2.5 SSE 28 41 15 22 1024.5 1024.5 0.0
15/07:00pm 13.1 8.0 7.8 70 2.6 SSE 24 32 13 17 1023.9 1023.9 0.0
15/06:30pm 13.4 8.7 7.6 68 2.9 S 22 28 12 15 1024.2 1024.2 0.0
15/06:00pm 14.0 9.2 7.5 65 3.2 S 22 28 12 15 1023.9 1023.9 0.0
15/05:30pm 15.4 10.7 7.9 61 3.8 SSE 22 32 12 17 1023.4 1023.4 0.0
15/05:00pm 16.5 12.2 9.4 63 3.7 SSW 22 32 12 17 1023.5 1023.5 0.0
15/04:30pm 16.6 11.9 9.3 62 3.8 SSW 24 33 13 18 1023.5 1023.5 0.0
15/04:00pm 17.3 12.3 9.5 60 4.1 SSW 26 35 14 19 1023.6 1023.6 0.0
15/03:30pm 17.4 11.8 8.8 57 4.5 SSW 28 37 15 20 1023.9 1023.9 0.0
15/03:00pm 16.5 11.5 8.0 57 4.3 SSW 24 33 13 18 1024.1 1024.1 0.0
15/02:30pm 17.0 12.0 8.2 56 4.5 SSW 24 33 13 18 1024.1 1024.1 0.0
15/02:00pm 16.3 11.2 7.8 57 4.3 SSW 24 37 13 20 1024.5 1024.5 0.0
15/01:30pm 18.0 13.9 10.1 60 4.2 SSW 22 35 12 19 1024.8 1024.8 0.0
15/01:00pm 16.2 11.9 7.9 58 4.2 SSW 20 28 11 15 1025.1 1025.1 0.0
15/12:30pm 17.7 14.9 8.6 55 4.7 S 13 20 7 11 1025.5 1025.5 0.0
15/12:00pm 18.3 16.2 8.3 52 5.1 SE 9 24 5 13 1025.6 1025.6 0.0
15/11:30am 17.1 14.3 8.5 57 4.4 ESE 13 19 7 10 1025.8 1025.8 0.0
15/11:00am 18.7 15.5 9.8 56 4.7 SE 17 26 9 14 1025.8 1025.8 0.0
15/10:30am 16.2 12.7 7.4 56 4.4 SSE 15 22 8 12 1025.9 1025.9 0.0
15/10:00am 17.6 14.1 8.7 56 4.6 SE 17 24 9 13 1026.0 1026.0 0.0
15/09:30am 16.8 12.6 8.2 57 4.4 SSE 20 28 11 15 1025.9 1025.9 0.0
15/09:00am 15.9 11.1 8.9 63 3.6 SSE 24 30 13 16 1025.9 1025.9 0.0
15/08:30am 15.5 11.5 9.2 66 3.3 SE 20 30 11 16 1026.1 1026.1 0.0
15/08:00am 14.3 10.3 8.9 70 2.7 SSE 20 28 11 15 1025.9 1025.9 0.0
15/07:30am 12.8 8.9 8.7 76 2.1 SSE 19 24 10 13 1025.5 1025.5 0.0
15/07:00am 11.3 7.0 8.0 80 1.6 SSE 20 26 11 14 1025.2 1025.2 0.0
15/06:30am 10.5 6.1 7.2 80 1.6 SSE 20 26 11 14 1025.0 1025.0 0.0
15/06:00am 10.5 6.1 7.2 80 1.6 SSE 20 24 11 13 1024.8 1024.8 0.0
15/05:30am 10.8 6.4 7.3 79 1.7 SSE 20 28 11 15 1024.4 1024.4 0.0
15/05:00am 11.5 7.2 7.8 78 1.8 SSE 20 26 11 14 1024.2 1024.2 0.0
15/04:30am 11.7 7.2 8.6 81 1.5 SSE 22 30 12 16 1024.0 1024.0 0.0
15/04:00am 11.1 7.0 7.8 80 1.6 SSE 19 24 10 13 1023.9 1023.9 0.0
15/03:30am 11.0 6.9 7.7 80 1.6 SSE 19 22 10 12 1023.8 1023.8 0.0
15/03:00am 11.3 7.6 7.8 79 1.7 SSE 17 20 9 11 1023.8 1023.8 0.0
15/02:30am 12.2 9.0 8.5 78 1.8 SSE 15 20 8 11 1023.9 1023.9 0.0
15/02:00am 12.7 9.2 8.8 77 2.0 SSE 17 20 9 11 1024.1 1024.1 0.0
15/01:30am 12.7 9.2 8.6 76 2.1 SSE 17 20 9 11 1024.2 1024.2 0.0
15/01:00am 11.9 8.0 7.2 73 2.3 SSE 17 20 9 11 1024.1 1024.1 0.0
15/12:30am 12.7 9.3 7.6 71 2.5 S 15 19 8 10 1024.1 1024.1 0.0
15/12:00am 12.6 9.6 7.9 73 2.3 S 13 15 7 8 1024.2 1024.2 0.0
 
Date/Time
WST
Temp
°C
App
Temp
°C
Dew
Point
°C
Rel
Hum
%
Delta-T
°C
Wind Press
QNH
hPa
Press
MSL
hPa
Rain since
9am
mm
Dir  Spd
km/h
Gust
km/h
Spd
kts
Gust
kts
14/11:30pm 11.9 8.4 7.4 74 2.2 S 15 17 8 9 1024.2 1024.2 0.0
14/11:00pm 12.3 8.6 7.8 74 2.2 S 17 20 9 11 1024.0 1024.0 0.0
14/10:30pm 12.5 9.1 7.8 73 2.3 S 15 22 8 12 1024.1 1024.1 0.0
14/10:00pm 13.1 9.5 8.2 72 2.4 S 17 20 9 11 1023.9 1023.9 0.0
14/09:30pm 13.2 9.5 7.9 70 2.6 SSW 17 20 9 11 1024.3 1024.3 0.0
14/09:00pm 14.1 10.0 8.7 70 2.7 SSW 20 28 11 15 1024.5 1024.5 0.0
14/08:30pm 14.4 10.4 9.2 71 2.7 SW 20 30 11 16 1024.5 1024.5 0.0
14/08:00pm 14.6 10.0 9.6 72 2.6 SW 24 32 13 17 1024.4 1024.4 0.0
14/07:30pm 14.6 10.0 9.8 73 2.5 SSW 24 32 13 17 1024.2 1024.2 0.0
14/07:00pm 14.7 10.9 9.9 73 2.5 SSW 20 30 11 16 1023.8 1023.8 0.0
14/06:30pm 14.6 10.4 9.6 72 2.6 SSW 22 28 12 15 1023.4 1023.4 0.0
14/06:00pm 15.3 10.9 10.3 72 2.6 SSW 24 32 13 17 1023.2 1023.2 0.0
14/05:30pm 16.1 12.1 10.4 69 3.0 SSW 22 30 12 16 1022.7 1022.7 0.0
14/05:00pm 17.1 13.2 10.9 67 3.3 SSW 22 33 12 18 1022.4 1022.3 0.0
14/04:30pm 17.5 13.5 10.6 64 3.7 SSW 22 28 12 15 1022.2 1022.1 0.0
14/04:00pm 17.9 14.5 11.2 65 3.6 SW 20 26 11 14 1022.3 1022.2 0.0
14/03:30pm 17.5 14.3 12.0 70 3.0 SW 20 26 11 14 1022.3 1022.2 0.0
14/03:00pm 18.1 15.4 13.0 72 2.9 SW 19 24 10 13 1022.4 1022.3 0.0
14/02:30pm 17.7 15.5 13.4 76 2.4 SW 17 24 9 13 1022.5 1022.5 0.0
14/02:00pm 17.6 15.0 13.3 76 2.4 SW 19 24 10 13 1022.6 1022.6 0.0
14/01:30pm 17.4 15.2 13.3 77 2.3 SW 17 20 9 11 1022.8 1022.8 0.0
14/01:00pm 18.4 16.0 13.7 74 2.7 SW 19 26 10 14 1022.9 1022.9 0.0
14/12:30pm 18.7 16.4 14.0 74 2.7 WSW 19 24 10 13 1023.2 1023.2 0.0
14/12:00pm 19.0 17.5 14.3 74 2.7 WSW 15 20 8 11 1023.1 1023.1 0.0
14/11:30am 19.8 18.4 14.6 72 3.0 WSW 15 19 8 10 1023.2 1023.2 0.0
14/11:00am 19.4 17.6 14.4 73 2.9 WSW 17 20 9 11 1023.4 1023.4 0.0
14/10:30am 20.5 19.1 15.5 73 3.0 WSW 17 20 9 11 1023.5 1023.5 0.0
14/10:00am 18.9 18.2 15.4 80 2.1 WSW 13 17 7 9 1023.6 1023.6 0.0
14/09:30am 18.0 17.2 15.1 83 1.7 WSW 13 17 7 9 1023.4 1023.4 0.0
14/09:00am 17.7 16.6 15.3 86 1.4 WSW 15 19 8 10 1023.5 1023.5 0.2
14/08:30am 17.4 16.3 15.2 87 1.3 WSW 15 17 8 9 1023.2 1023.2 0.2
14/08:00am 17.0 16.2 15.0 88 1.2 SW 13 15 7 8 1022.6 1022.6 0.2
14/07:30am 16.7 15.7 14.7 88 1.2 SW 13 17 7 9 1022.2 1022.1 0.2
14/07:00am 16.2 14.4 14.4 89 1.0 SW 17 24 9 13 1021.8 1021.7 0.2
14/06:30am 15.7 13.2 14.1 90 0.9 SW 20 28 11 15 1021.6 1021.5 0.2

Other formats

Comma delimited format used in spreadsheet applications
http://www.bom.gov.au/fwo/IDW60801/IDW60801.94600.axf

JavaScript Object Notation format (JSON) in row-major order
http://www.bom.gov.au/fwo/IDW60801/IDW60801.94600.json

Data quality

Most of these data are generated automatically and are frequently updated. Quality checks on data are not normally performed. It is possible for incorrect values to appear. Refer to information at About Latest Weather Observations and please check the disclaimer before using these data.